sensor_id;sensor_type;location;lat;lon;timestamp;P1;durP1;ratioP1;P2;durP2;ratioP2
35646;SDS011;28680;45.642;13.756;2023-05-24T00:02:07;15.60;;;11.30;;
35646;SDS011;28680;45.642;13.756;2023-05-24T00:04:34;18.90;;;11.23;;
35646;SDS011;28680;45.642;13.756;2023-05-24T00:07:00;18.23;;;11.25;;
35646;SDS011;28680;45.642;13.756;2023-05-24T00:09:28;20.52;;;10.40;;
35646;SDS011;28680;45.642;13.756;2023-05-24T00:11:55;21.95;;;10.38;;
35646;SDS011;28680;45.642;13.756;2023-05-24T00:14:21;21.13;;;9.93;;
35646;SDS011;28680;45.642;13.756;2023-05-24T00:16:47;18.85;;;9.48;;
35646;SDS011;28680;45.642;13.756;2023-05-24T00:19:13;18.60;;;9.65;;
35646;SDS011;28680;45.642;13.756;2023-05-24T00:21:48;13.10;;;9.55;;
35646;SDS011;28680;45.642;13.756;2023-05-24T00:24:14;15.90;;;9.30;;
35646;SDS011;28680;45.642;13.756;2023-05-24T00:26:41;20.30;;;9.30;;
35646;SDS011;28680;45.642;13.756;2023-05-24T00:29:07;23.90;;;10.32;;
35646;SDS011;28680;45.642;13.756;2023-05-24T00:31:33;18.73;;;8.80;;
35646;SDS011;28680;45.642;13.756;2023-05-24T00:33:59;20.13;;;9.85;;
35646;SDS011;28680;45.642;13.756;2023-05-24T00:36:25;15.68;;;9.15;;
35646;SDS011;28680;45.642;13.756;2023-05-24T00:38:51;14.80;;;8.65;;
35646;SDS011;28680;45.642;13.756;2023-05-24T00:41:17;18.38;;;8.90;;
35646;SDS011;28680;45.642;13.756;2023-05-24T00:43:43;16.83;;;9.75;;
35646;SDS011;28680;45.642;13.756;2023-05-24T00:46:28;18.00;;;9.27;;
35646;SDS011;28680;45.642;13.756;2023-05-24T00:48:56;15.70;;;8.80;;
35646;SDS011;28680;45.642;13.756;2023-05-24T00:51:24;17.88;;;8.82;;
35646;SDS011;28680;45.642;13.756;2023-05-24T00:53:53;12.45;;;8.85;;
35646;SDS011;28680;45.642;13.756;2023-05-24T00:56:19;18.25;;;9.25;;
35646;SDS011;28680;45.642;13.756;2023-05-24T00:58:45;17.55;;;9.50;;
35646;SDS011;28680;45.642;13.756;2023-05-24T01:01:11;16.35;;;9.00;;
35646;SDS011;28680;45.642;13.756;2023-05-24T01:03:38;15.82;;;9.27;;
35646;SDS011;28680;45.642;13.756;2023-05-24T01:06:05;11.93;;;8.57;;
35646;SDS011;28680;45.642;13.756;2023-05-24T01:17:36;12.70;;;7.22;;
35646;SDS011;28680;45.642;13.756;2023-05-24T01:20:25;10.85;;;7.30;;
35646;SDS011;28680;45.642;13.756;2023-05-24T01:23:13;11.88;;;7.63;;
35646;SDS011;28680;45.642;13.756;2023-05-24T01:26:19;13.57;;;7.82;;
35646;SDS011;28680;45.642;13.756;2023-05-24T01:29:15;16.13;;;7.60;;
35646;SDS011;28680;45.642;13.756;2023-05-24T01:31:42;12.50;;;7.28;;
35646;SDS011;28680;45.642;13.756;2023-05-24T01:34:08;13.88;;;8.00;;
35646;SDS011;28680;45.642;13.756;2023-05-24T01:36:33;13.60;;;8.10;;
35646;SDS011;28680;45.642;13.756;2023-05-24T01:39:00;10.73;;;7.57;;
35646;SDS011;28680;45.642;13.756;2023-05-24T01:41:40;14.05;;;7.97;;
35646;SDS011;28680;45.642;13.756;2023-05-24T01:44:26;9.02;;;7.13;;
35646;SDS011;28680;45.642;13.756;2023-05-24T01:49:56;11.05;;;7.18;;
35646;SDS011;28680;45.642;13.756;2023-05-24T01:52:32;15.90;;;8.02;;
35646;SDS011;28680;45.642;13.756;2023-05-24T01:54:59;12.85;;;7.55;;
35646;SDS011;28680;45.642;13.756;2023-05-24T01:57:27;13.70;;;7.53;;
35646;SDS011;28680;45.642;13.756;2023-05-24T01:59:54;11.98;;;6.85;;
35646;SDS011;28680;45.642;13.756;2023-05-24T02:02:22;13.60;;;7.15;;
35646;SDS011;28680;45.642;13.756;2023-05-24T02:04:48;13.45;;;7.22;;
35646;SDS011;28680;45.642;13.756;2023-05-24T02:07:14;9.57;;;6.93;;
35646;SDS011;28680;45.642;13.756;2023-05-24T02:09:41;10.07;;;7.57;;
35646;SDS011;28680;45.642;13.756;2023-05-24T02:12:07;11.68;;;7.50;;
35646;SDS011;28680;45.642;13.756;2023-05-24T02:14:34;14.38;;;7.53;;
35646;SDS011;28680;45.642;13.756;2023-05-24T02:17:01;11.43;;;7.28;;
35646;SDS011;28680;45.642;13.756;2023-05-24T02:19:28;11.32;;;6.65;;
35646;SDS011;28680;45.642;13.756;2023-05-24T02:21:54;13.60;;;7.78;;
35646;SDS011;28680;45.642;13.756;2023-05-24T02:24:20;13.50;;;7.30;;
35646;SDS011;28680;45.642;13.756;2023-05-24T02:26:46;11.27;;;7.95;;
35646;SDS011;28680;45.642;13.756;2023-05-24T02:29:12;11.30;;;7.63;;
35646;SDS011;28680;45.642;13.756;2023-05-24T02:31:38;13.02;;;7.45;;
35646;SDS011;28680;45.642;13.756;2023-05-24T02:34:03;12.30;;;7.63;;
35646;SDS011;28680;45.642;13.756;2023-05-24T02:36:29;13.27;;;7.72;;
35646;SDS011;28680;45.642;13.756;2023-05-24T02:38:56;11.85;;;7.72;;
35646;SDS011;28680;45.642;13.756;2023-05-24T02:41:22;12.10;;;7.78;;
35646;SDS011;28680;45.642;13.756;2023-05-24T02:43:48;11.27;;;6.82;;
35646;SDS011;28680;45.642;13.756;2023-05-24T02:46:14;15.48;;;7.43;;
35646;SDS011;28680;45.642;13.756;2023-05-24T02:48:40;14.82;;;7.28;;
35646;SDS011;28680;45.642;13.756;2023-05-24T02:51:06;9.07;;;6.53;;
35646;SDS011;28680;45.642;13.756;2023-05-24T02:53:32;15.38;;;6.60;;
35646;SDS011;28680;45.642;13.756;2023-05-24T02:55:58;12.63;;;6.32;;
35646;SDS011;28680;45.642;13.756;2023-05-24T02:58:24;9.02;;;6.25;;
35646;SDS011;28680;45.642;13.756;2023-05-24T03:00:54;19.02;;;6.18;;
35646;SDS011;28680;45.642;13.756;2023-05-24T03:03:20;10.10;;;5.68;;
35646;SDS011;28680;45.642;13.756;2023-05-24T03:05:46;7.88;;;4.95;;
35646;SDS011;28680;45.642;13.756;2023-05-24T03:08:12;8.20;;;4.82;;
35646;SDS011;28680;45.642;13.756;2023-05-24T03:10:38;7.60;;;4.20;;
35646;SDS011;28680;45.642;13.756;2023-05-24T03:13:04;7.65;;;4.47;;
35646;SDS011;28680;45.642;13.756;2023-05-24T03:15:29;8.60;;;4.18;;
35646;SDS011;28680;45.642;13.756;2023-05-24T03:17:55;5.53;;;3.83;;
35646;SDS011;28680;45.642;13.756;2023-05-24T03:20:21;5.88;;;3.70;;
35646;SDS011;28680;45.642;13.756;2023-05-24T03:22:48;6.68;;;4.40;;
35646;SDS011;28680;45.642;13.756;2023-05-24T03:25:14;7.13;;;4.60;;
35646;SDS011;28680;45.642;13.756;2023-05-24T03:27:40;7.70;;;4.20;;
35646;SDS011;28680;45.642;13.756;2023-05-24T03:30:06;8.40;;;4.20;;
35646;SDS011;28680;45.642;13.756;2023-05-24T03:32:33;7.00;;;4.55;;
35646;SDS011;28680;45.642;13.756;2023-05-24T03:34:59;8.43;;;4.20;;
35646;SDS011;28680;45.642;13.756;2023-05-24T03:37:25;8.70;;;4.55;;
35646;SDS011;28680;45.642;13.756;2023-05-24T03:39:51;7.82;;;4.43;;
35646;SDS011;28680;45.642;13.756;2023-05-24T03:42:18;8.95;;;4.65;;
35646;SDS011;28680;45.642;13.756;2023-05-24T03:44:45;5.57;;;4.50;;
35646;SDS011;28680;45.642;13.756;2023-05-24T03:47:11;9.73;;;5.50;;
35646;SDS011;28680;45.642;13.756;2023-05-24T03:49:36;9.95;;;4.60;;
35646;SDS011;28680;45.642;13.756;2023-05-24T03:52:02;9.55;;;4.88;;
35646;SDS011;28680;45.642;13.756;2023-05-24T03:54:28;12.85;;;5.40;;
35646;SDS011;28680;45.642;13.756;2023-05-24T03:56:54;9.32;;;5.07;;
35646;SDS011;28680;45.642;13.756;2023-05-24T03:59:20;9.05;;;4.90;;
35646;SDS011;28680;45.642;13.756;2023-05-24T04:01:46;13.45;;;5.85;;
35646;SDS011;28680;45.642;13.756;2023-05-24T04:04:12;15.80;;;5.93;;
35646;SDS011;28680;45.642;13.756;2023-05-24T04:06:38;12.43;;;5.22;;
35646;SDS011;28680;45.642;13.756;2023-05-24T04:09:05;11.35;;;6.45;;
35646;SDS011;28680;45.642;13.756;2023-05-24T04:11:31;10.57;;;6.55;;
35646;SDS011;28680;45.642;13.756;2023-05-24T04:13:58;7.93;;;6.13;;
35646;SDS011;28680;45.642;13.756;2023-05-24T04:16:24;8.70;;;5.85;;
35646;SDS011;28680;45.642;13.756;2023-05-24T04:18:51;9.52;;;5.45;;
35646;SDS011;28680;45.642;13.756;2023-05-24T04:21:20;10.60;;;5.60;;
35646;SDS011;28680;45.642;13.756;2023-05-24T04:23:46;7.68;;;5.60;;
35646;SDS011;28680;45.642;13.756;2023-05-24T04:26:12;10.18;;;5.50;;
35646;SDS011;28680;45.642;13.756;2023-05-24T04:28:39;9.50;;;6.30;;
35646;SDS011;28680;45.642;13.756;2023-05-24T04:31:06;11.95;;;5.32;;
35646;SDS011;28680;45.642;13.756;2023-05-24T04:33:33;8.13;;;5.00;;
35646;SDS011;28680;45.642;13.756;2023-05-24T04:36:00;10.75;;;5.60;;
35646;SDS011;28680;45.642;13.756;2023-05-24T04:38:26;8.45;;;4.97;;
35646;SDS011;28680;45.642;13.756;2023-05-24T04:40:54;7.68;;;5.30;;
35646;SDS011;28680;45.642;13.756;2023-05-24T04:43:20;7.88;;;4.88;;
35646;SDS011;28680;45.642;13.756;2023-05-24T04:45:46;7.07;;;5.13;;
35646;SDS011;28680;45.642;13.756;2023-05-24T04:48:12;10.55;;;5.60;;
35646;SDS011;28680;45.642;13.756;2023-05-24T04:50:38;11.27;;;7.75;;
35646;SDS011;28680;45.642;13.756;2023-05-24T04:53:04;9.18;;;4.68;;
35646;SDS011;28680;45.642;13.756;2023-05-24T04:55:30;8.90;;;4.75;;
35646;SDS011;28680;45.642;13.756;2023-05-24T04:57:56;8.32;;;5.03;;
35646;SDS011;28680;45.642;13.756;2023-05-24T05:00:22;7.18;;;4.80;;
35646;SDS011;28680;45.642;13.756;2023-05-24T05:02:48;7.00;;;4.85;;
35646;SDS011;28680;45.642;13.756;2023-05-24T05:05:14;7.95;;;4.72;;
35646;SDS011;28680;45.642;13.756;2023-05-24T05:07:40;8.35;;;5.13;;
35646;SDS011;28680;45.642;13.756;2023-05-24T05:10:06;11.60;;;4.90;;
35646;SDS011;28680;45.642;13.756;2023-05-24T05:12:32;7.88;;;5.13;;
35646;SDS011;28680;45.642;13.756;2023-05-24T05:14:58;9.82;;;5.05;;
35646;SDS011;28680;45.642;13.756;2023-05-24T05:17:24;7.15;;;4.82;;
35646;SDS011;28680;45.642;13.756;2023-05-24T05:19:50;6.38;;;4.60;;
35646;SDS011;28680;45.642;13.756;2023-05-24T05:22:15;6.80;;;5.10;;
35646;SDS011;28680;45.642;13.756;2023-05-24T05:24:41;9.88;;;5.30;;
35646;SDS011;28680;45.642;13.756;2023-05-24T05:27:07;9.73;;;5.15;;
35646;SDS011;28680;45.642;13.756;2023-05-24T05:29:33;11.23;;;5.40;;
35646;SDS011;28680;45.642;13.756;2023-05-24T05:31:59;10.70;;;5.50;;
35646;SDS011;28680;45.642;13.756;2023-05-24T05:34:25;10.85;;;5.38;;
35646;SDS011;28680;45.642;13.756;2023-05-24T05:36:50;10.07;;;4.68;;
35646;SDS011;28680;45.642;13.756;2023-05-24T05:39:16;9.85;;;4.85;;
35646;SDS011;28680;45.642;13.756;2023-05-24T05:41:42;8.02;;;4.47;;
35646;SDS011;28680;45.642;13.756;2023-05-24T05:44:10;9.20;;;4.88;;
35646;SDS011;28680;45.642;13.756;2023-05-24T05:46:36;7.78;;;4.65;;
35646;SDS011;28680;45.642;13.756;2023-05-24T05:49:03;7.28;;;4.18;;
35646;SDS011;28680;45.642;13.756;2023-05-24T05:51:30;6.65;;;4.18;;
35646;SDS011;28680;45.642;13.756;2023-05-24T05:53:56;6.15;;;4.28;;
35646;SDS011;28680;45.642;13.756;2023-05-24T05:56:22;5.32;;;4.20;;
35646;SDS011;28680;45.642;13.756;2023-05-24T05:58:48;13.45;;;4.78;;
35646;SDS011;28680;45.642;13.756;2023-05-24T06:01:14;5.50;;;4.50;;
35646;SDS011;28680;45.642;13.756;2023-05-24T06:03:40;11.25;;;4.93;;
35646;SDS011;28680;45.642;13.756;2023-05-24T06:06:06;6.78;;;4.18;;
35646;SDS011;28680;45.642;13.756;2023-05-24T06:08:32;6.20;;;4.07;;
35646;SDS011;28680;45.642;13.756;2023-05-24T06:10:59;6.32;;;4.13;;
35646;SDS011;28680;45.642;13.756;2023-05-24T06:13:26;5.85;;;4.43;;
35646;SDS011;28680;45.642;13.756;2023-05-24T06:15:55;6.28;;;4.03;;
35646;SDS011;28680;45.642;13.756;2023-05-24T06:18:22;6.53;;;4.03;;
35646;SDS011;28680;45.642;13.756;2023-05-24T06:20:49;7.28;;;4.43;;
35646;SDS011;28680;45.642;13.756;2023-05-24T06:23:15;7.18;;;4.30;;
35646;SDS011;28680;45.642;13.756;2023-05-24T06:25:41;7.05;;;3.85;;
35646;SDS011;28680;45.642;13.756;2023-05-24T06:28:08;9.18;;;4.03;;
35646;SDS011;28680;45.642;13.756;2023-05-24T06:30:34;4.82;;;3.90;;
35646;SDS011;28680;45.642;13.756;2023-05-24T06:33:00;8.95;;;4.45;;
35646;SDS011;28680;45.642;13.756;2023-05-24T06:35:26;4.75;;;3.83;;
35646;SDS011;28680;45.642;13.756;2023-05-24T06:37:52;8.93;;;4.15;;
35646;SDS011;28680;45.642;13.756;2023-05-24T06:40:18;6.78;;;4.13;;
35646;SDS011;28680;45.642;13.756;2023-05-24T06:42:44;5.80;;;3.90;;
35646;SDS011;28680;45.642;13.756;2023-05-24T06:45:10;6.70;;;4.47;;
35646;SDS011;28680;45.642;13.756;2023-05-24T06:47:37;6.13;;;3.60;;
35646;SDS011;28680;45.642;13.756;2023-05-24T06:50:03;5.82;;;4.00;;
35646;SDS011;28680;45.642;13.756;2023-05-24T06:52:30;7.47;;;4.03;;
35646;SDS011;28680;45.642;13.756;2023-05-24T06:54:55;5.07;;;3.67;;
35646;SDS011;28680;45.642;13.756;2023-05-24T06:57:21;6.97;;;3.90;;
35646;SDS011;28680;45.642;13.756;2023-05-24T06:59:48;5.53;;;4.45;;
35646;SDS011;28680;45.642;13.756;2023-05-24T07:02:14;8.88;;;4.07;;
35646;SDS011;28680;45.642;13.756;2023-05-24T07:04:40;7.00;;;3.72;;
35646;SDS011;28680;45.642;13.756;2023-05-24T07:07:06;7.80;;;4.40;;
35646;SDS011;28680;45.642;13.756;2023-05-24T07:09:34;8.55;;;4.10;;
35646;SDS011;28680;45.642;13.756;2023-05-24T07:12:00;5.20;;;4.00;;
35646;SDS011;28680;45.642;13.756;2023-05-24T07:14:26;7.22;;;3.67;;
35646;SDS011;28680;45.642;13.756;2023-05-24T07:16:52;4.95;;;3.67;;
35646;SDS011;28680;45.642;13.756;2023-05-24T07:19:21;4.68;;;3.90;;
35646;SDS011;28680;45.642;13.756;2023-05-24T07:21:47;5.45;;;3.83;;
35646;SDS011;28680;45.642;13.756;2023-05-24T07:24:12;5.40;;;3.80;;
35646;SDS011;28680;45.642;13.756;2023-05-24T07:26:38;7.50;;;3.83;;
35646;SDS011;28680;45.642;13.756;2023-05-24T07:29:04;7.15;;;3.80;;
35646;SDS011;28680;45.642;13.756;2023-05-24T07:31:30;7.75;;;4.10;;
35646;SDS011;28680;45.642;13.756;2023-05-24T07:33:58;6.75;;;3.67;;
35646;SDS011;28680;45.642;13.756;2023-05-24T07:36:24;7.88;;;4.15;;
35646;SDS011;28680;45.642;13.756;2023-05-24T07:38:50;5.28;;;3.53;;
35646;SDS011;28680;45.642;13.756;2023-05-24T07:41:17;5.85;;;3.72;;
35646;SDS011;28680;45.642;13.756;2023-05-24T07:43:44;5.32;;;3.55;;
35646;SDS011;28680;45.642;13.756;2023-05-24T07:46:10;6.63;;;3.72;;
35646;SDS011;28680;45.642;13.756;2023-05-24T07:48:36;5.55;;;3.72;;
35646;SDS011;28680;45.642;13.756;2023-05-24T07:51:02;5.13;;;3.80;;
35646;SDS011;28680;45.642;13.756;2023-05-24T07:53:28;5.45;;;3.78;;
35646;SDS011;28680;45.642;13.756;2023-05-24T07:55:53;7.88;;;3.50;;
35646;SDS011;28680;45.642;13.756;2023-05-24T07:58:20;4.70;;;3.67;;
35646;SDS011;28680;45.642;13.756;2023-05-24T08:00:46;6.97;;;4.00;;
35646;SDS011;28680;45.642;13.756;2023-05-24T08:03:12;7.60;;;3.65;;
35646;SDS011;28680;45.642;13.756;2023-05-24T08:05:39;8.80;;;3.90;;
35646;SDS011;28680;45.642;13.756;2023-05-24T08:08:05;4.22;;;3.30;;
35646;SDS011;28680;45.642;13.756;2023-05-24T08:10:31;7.97;;;4.10;;
35646;SDS011;28680;45.642;13.756;2023-05-24T08:12:57;6.03;;;4.07;;
35646;SDS011;28680;45.642;13.756;2023-05-24T08:15:23;7.65;;;3.67;;
35646;SDS011;28680;45.642;13.756;2023-05-24T08:17:49;8.07;;;3.50;;
35646;SDS011;28680;45.642;13.756;2023-05-24T08:20:15;5.40;;;3.58;;
35646;SDS011;28680;45.642;13.756;2023-05-24T08:22:44;5.97;;;3.47;;
35646;SDS011;28680;45.642;13.756;2023-05-24T08:25:12;6.10;;;3.50;;
35646;SDS011;28680;45.642;13.756;2023-05-24T08:28:11;4.57;;;3.20;;
35646;SDS011;28680;45.642;13.756;2023-05-24T08:30:34;6.13;;;3.50;;
35646;SDS011;28680;45.642;13.756;2023-05-24T08:33:06;5.07;;;3.40;;
35646;SDS011;28680;45.642;13.756;2023-05-24T08:35:38;4.03;;;3.05;;
35646;SDS011;28680;45.642;13.756;2023-05-24T08:38:10;7.47;;;3.58;;
35646;SDS011;28680;45.642;13.756;2023-05-24T08:40:46;5.63;;;3.20;;
35646;SDS011;28680;45.642;13.756;2023-05-24T08:56:25;10.82;;;3.17;;
35646;SDS011;28680;45.642;13.756;2023-05-24T08:59:48;6.55;;;3.50;;
35646;SDS011;28680;45.642;13.756;2023-05-24T09:06:16;4.60;;;3.10;;
35646;SDS011;28680;45.642;13.756;2023-05-24T09:08:43;5.07;;;3.40;;
35646;SDS011;28680;45.642;13.756;2023-05-24T09:11:10;6.15;;;3.47;;
35646;SDS011;28680;45.642;13.756;2023-05-24T09:13:37;6.22;;;3.55;;
35646;SDS011;28680;45.642;13.756;2023-05-24T09:16:04;6.05;;;3.70;;
35646;SDS011;28680;45.642;13.756;2023-05-24T09:18:30;4.60;;;3.35;;
35646;SDS011;28680;45.642;13.756;2023-05-24T09:20:56;7.00;;;3.47;;
35646;SDS011;28680;45.642;13.756;2023-05-24T09:23:23;8.07;;;3.42;;
35646;SDS011;28680;45.642;13.756;2023-05-24T09:25:51;7.30;;;3.53;;
35646;SDS011;28680;45.642;13.756;2023-05-24T09:28:17;8.43;;;3.70;;
35646;SDS011;28680;45.642;13.756;2023-05-24T09:30:57;6.40;;;3.55;;
35646;SDS011;28680;45.642;13.756;2023-05-24T09:33:30;6.68;;;3.50;;
35646;SDS011;28680;45.642;13.756;2023-05-24T09:35:58;7.10;;;3.83;;
35646;SDS011;28680;45.642;13.756;2023-05-24T09:38:27;5.63;;;3.22;;
35646;SDS011;28680;45.642;13.756;2023-05-24T09:41:00;7.72;;;3.53;;
35646;SDS011;28680;45.642;13.756;2023-05-24T09:43:31;5.40;;;3.58;;
35646;SDS011;28680;45.642;13.756;2023-05-24T09:46:03;5.32;;;3.65;;
35646;SDS011;28680;45.642;13.756;2023-05-24T09:48:29;4.75;;;3.90;;
35646;SDS011;28680;45.642;13.756;2023-05-24T09:50:56;5.80;;;3.60;;
35646;SDS011;28680;45.642;13.756;2023-05-24T09:53:29;4.53;;;3.60;;
35646;SDS011;28680;45.642;13.756;2023-05-24T09:55:59;5.30;;;3.88;;
35646;SDS011;28680;45.642;13.756;2023-05-24T09:58:31;4.75;;;3.65;;
35646;SDS011;28680;45.642;13.756;2023-05-24T10:01:04;5.13;;;3.70;;
35646;SDS011;28680;45.642;13.756;2023-05-24T10:03:52;7.22;;;3.53;;
35646;SDS011;28680;45.642;13.756;2023-05-24T10:06:19;6.07;;;3.88;;
35646;SDS011;28680;45.642;13.756;2023-05-24T10:08:48;7.85;;;4.13;;
35646;SDS011;28680;45.642;13.756;2023-05-24T10:11:16;4.85;;;3.80;;
35646;SDS011;28680;45.642;13.756;2023-05-24T10:13:46;5.25;;;3.63;;
35646;SDS011;28680;45.642;13.756;2023-05-24T10:16:13;6.80;;;4.00;;
35646;SDS011;28680;45.642;13.756;2023-05-24T10:18:40;6.55;;;3.72;;
35646;SDS011;28680;45.642;13.756;2023-05-24T10:21:06;7.10;;;3.65;;
35646;SDS011;28680;45.642;13.756;2023-05-24T10:23:56;5.68;;;3.65;;
35646;SDS011;28680;45.642;13.756;2023-05-24T10:26:23;7.55;;;4.10;;
35646;SDS011;28680;45.642;13.756;2023-05-24T10:28:54;4.25;;;3.58;;
35646;SDS011;28680;45.642;13.756;2023-05-24T10:31:29;7.50;;;3.80;;
35646;SDS011;28680;45.642;13.756;2023-05-24T10:34:07;6.40;;;3.47;;
35646;SDS011;28680;45.642;13.756;2023-05-24T10:40:32;4.80;;;3.50;;
35646;SDS011;28680;45.642;13.756;2023-05-24T10:43:04;7.38;;;3.53;;
35646;SDS011;28680;45.642;13.756;2023-05-24T10:59:33;5.63;;;3.50;;
35646;SDS011;28680;45.642;13.756;2023-05-24T11:02:05;5.07;;;3.53;;
35646;SDS011;28680;45.642;13.756;2023-05-24T11:04:41;7.30;;;3.60;;
35646;SDS011;28680;45.642;13.756;2023-05-24T11:07:11;7.25;;;4.18;;
35646;SDS011;28680;45.642;13.756;2023-05-24T11:09:39;5.38;;;4.00;;
35646;SDS011;28680;45.642;13.756;2023-05-24T11:12:13;6.35;;;3.78;;
35646;SDS011;28680;45.642;13.756;2023-05-24T11:14:51;6.97;;;3.80;;
35646;SDS011;28680;45.642;13.756;2023-05-24T11:17:18;7.07;;;4.13;;
35646;SDS011;28680;45.642;13.756;2023-05-24T11:19:51;5.57;;;3.50;;
35646;SDS011;28680;45.642;13.756;2023-05-24T11:22:19;6.15;;;4.00;;
35646;SDS011;28680;45.642;13.756;2023-05-24T11:24:48;6.78;;;3.50;;
35646;SDS011;28680;45.642;13.756;2023-05-24T11:27:26;6.53;;;3.42;;
35646;SDS011;28680;45.642;13.756;2023-05-24T11:29:52;4.93;;;3.65;;
35646;SDS011;28680;45.642;13.756;2023-05-24T11:32:19;7.40;;;3.47;;
35646;SDS011;28680;45.642;13.756;2023-05-24T11:34:47;5.75;;;3.55;;
35646;SDS011;28680;45.642;13.756;2023-05-24T11:37:13;5.55;;;3.95;;
35646;SDS011;28680;45.642;13.756;2023-05-24T11:39:40;7.93;;;3.67;;
35646;SDS011;28680;45.642;13.756;2023-05-24T11:42:07;6.93;;;3.80;;
35646;SDS011;28680;45.642;13.756;2023-05-24T11:44:33;6.57;;;3.72;;
35646;SDS011;28680;45.642;13.756;2023-05-24T11:47:06;6.50;;;4.05;;
35646;SDS011;28680;45.642;13.756;2023-05-24T11:49:41;6.25;;;3.80;;
35646;SDS011;28680;45.642;13.756;2023-05-24T11:52:06;6.53;;;3.78;;
35646;SDS011;28680;45.642;13.756;2023-05-24T11:54:32;4.75;;;3.90;;
35646;SDS011;28680;45.642;13.756;2023-05-24T11:56:59;4.75;;;3.70;;
35646;SDS011;28680;45.642;13.756;2023-05-24T11:59:26;5.63;;;3.90;;
35646;SDS011;28680;45.642;13.756;2023-05-24T12:01:56;6.22;;;3.90;;
35646;SDS011;28680;45.642;13.756;2023-05-24T12:04:44;5.35;;;3.65;;
35646;SDS011;28680;45.642;13.756;2023-05-24T12:07:22;6.72;;;4.32;;
35646;SDS011;28680;45.642;13.756;2023-05-24T12:10:36;8.63;;;4.28;;
35646;SDS011;28680;45.642;13.756;2023-05-24T12:15:38;7.55;;;3.75;;
35646;SDS011;28680;45.642;13.756;2023-05-24T12:18:56;6.47;;;3.97;;
35646;SDS011;28680;45.642;13.756;2023-05-24T12:21:22;6.07;;;3.90;;
35646;SDS011;28680;45.642;13.756;2023-05-24T12:23:48;7.15;;;3.53;;
35646;SDS011;28680;45.642;13.756;2023-05-24T12:26:20;7.70;;;4.20;;
35646;SDS011;28680;45.642;13.756;2023-05-24T12:29:11;6.55;;;3.55;;
35646;SDS011;28680;45.642;13.756;2023-05-24T12:31:39;5.63;;;3.47;;
35646;SDS011;28680;45.642;13.756;2023-05-24T12:34:10;7.20;;;3.78;;
35646;SDS011;28680;45.642;13.756;2023-05-24T12:36:44;7.22;;;3.83;;
35646;SDS011;28680;45.642;13.756;2023-05-24T12:39:18;7.20;;;3.90;;
35646;SDS011;28680;45.642;13.756;2023-05-24T12:41:48;6.53;;;3.80;;
35646;SDS011;28680;45.642;13.756;2023-05-24T12:44:23;4.60;;;3.75;;
35646;SDS011;28680;45.642;13.756;2023-05-24T12:46:54;6.82;;;3.42;;
35646;SDS011;28680;45.642;13.756;2023-05-24T12:49:21;4.78;;;3.40;;
35646;SDS011;28680;45.642;13.756;2023-05-24T12:51:49;5.80;;;3.72;;
35646;SDS011;28680;45.642;13.756;2023-05-24T12:54:31;3.70;;;3.17;;
35646;SDS011;28680;45.642;13.756;2023-05-24T12:56:57;6.10;;;3.40;;
35646;SDS011;28680;45.642;13.756;2023-05-24T12:59:24;4.78;;;3.22;;
35646;SDS011;28680;45.642;13.756;2023-05-24T13:01:52;6.88;;;3.58;;
35646;SDS011;28680;45.642;13.756;2023-05-24T13:07:59;6.93;;;3.55;;
35646;SDS011;28680;45.642;13.756;2023-05-24T13:10:25;4.68;;;3.38;;
35646;SDS011;28680;45.642;13.756;2023-05-24T13:12:51;5.68;;;3.70;;
35646;SDS011;28680;45.642;13.756;2023-05-24T13:15:17;5.25;;;3.10;;
35646;SDS011;28680;45.642;13.756;2023-05-24T13:17:55;4.10;;;3.05;;
35646;SDS011;28680;45.642;13.756;2023-05-24T13:20:21;6.00;;;3.50;;
35646;SDS011;28680;45.642;13.756;2023-05-24T13:22:48;4.88;;;3.30;;
35646;SDS011;28680;45.642;13.756;2023-05-24T13:25:14;4.85;;;3.60;;
35646;SDS011;28680;45.642;13.756;2023-05-24T13:27:40;5.47;;;3.50;;
35646;SDS011;28680;45.642;13.756;2023-05-24T13:30:06;3.95;;;3.17;;
35646;SDS011;28680;45.642;13.756;2023-05-24T13:32:33;8.02;;;3.75;;
35646;SDS011;28680;45.642;13.756;2023-05-24T13:34:59;4.95;;;3.58;;
35646;SDS011;28680;45.642;13.756;2023-05-24T13:45:12;3.80;;;2.90;;
35646;SDS011;28680;45.642;13.756;2023-05-24T13:47:43;3.33;;;2.90;;
35646;SDS011;28680;45.642;13.756;2023-05-24T13:50:12;5.95;;;2.90;;
35646;SDS011;28680;45.642;13.756;2023-05-24T13:52:38;6.15;;;3.05;;
35646;SDS011;28680;45.642;13.756;2023-05-24T13:55:07;5.07;;;3.30;;
35646;SDS011;28680;45.642;13.756;2023-05-24T13:57:34;3.70;;;3.03;;
35646;SDS011;28680;45.642;13.756;2023-05-24T14:00:00;4.43;;;2.92;;
35646;SDS011;28680;45.642;13.756;2023-05-24T14:02:30;6.97;;;3.47;;
35646;SDS011;28680;45.642;13.756;2023-05-24T14:04:59;7.53;;;2.85;;
35646;SDS011;28680;45.642;13.756;2023-05-24T14:07:25;4.65;;;3.10;;
35646;SDS011;28680;45.642;13.756;2023-05-24T14:10:03;5.82;;;2.78;;
35646;SDS011;28680;45.642;13.756;2023-05-24T14:12:31;4.43;;;3.00;;
35646;SDS011;28680;45.642;13.756;2023-05-24T14:15:12;5.00;;;3.20;;
35646;SDS011;28680;45.642;13.756;2023-05-24T14:17:38;4.53;;;3.10;;
35646;SDS011;28680;45.642;13.756;2023-05-24T14:20:16;5.00;;;3.20;;
35646;SDS011;28680;45.642;13.756;2023-05-24T14:22:45;5.85;;;3.15;;
35646;SDS011;28680;45.642;13.756;2023-05-24T14:28:25;3.80;;;2.53;;
35646;SDS011;28680;45.642;13.756;2023-05-24T14:30:51;13.30;;;8.18;;
35646;SDS011;28680;45.642;13.756;2023-05-24T14:33:17;3.80;;;2.85;;
35646;SDS011;28680;45.642;13.756;2023-05-24T14:35:43;4.28;;;2.75;;
35646;SDS011;28680;45.642;13.756;2023-05-24T14:38:10;5.15;;;3.38;;
35646;SDS011;28680;45.642;13.756;2023-05-24T14:40:36;5.07;;;3.25;;
35646;SDS011;28680;45.642;13.756;2023-05-24T14:43:11;4.25;;;3.15;;
35646;SDS011;28680;45.642;13.756;2023-05-24T14:45:43;5.07;;;3.10;;
35646;SDS011;28680;45.642;13.756;2023-05-24T14:48:09;5.55;;;2.75;;
35646;SDS011;28680;45.642;13.756;2023-05-24T14:50:39;3.90;;;3.13;;
35646;SDS011;28680;45.642;13.756;2023-05-24T14:53:17;5.43;;;3.00;;
35646;SDS011;28680;45.642;13.756;2023-05-24T14:55:43;5.40;;;3.08;;
35646;SDS011;28680;45.642;13.756;2023-05-24T14:58:09;3.30;;;2.60;;
35646;SDS011;28680;45.642;13.756;2023-05-24T15:00:51;5.75;;;3.38;;
35646;SDS011;28680;45.642;13.756;2023-05-24T15:03:17;4.40;;;2.90;;
35646;SDS011;28680;45.642;13.756;2023-05-24T15:05:43;5.00;;;3.10;;
35646;SDS011;28680;45.642;13.756;2023-05-24T15:20:48;3.90;;;2.97;;
35646;SDS011;28680;45.642;13.756;2023-05-24T15:23:15;4.10;;;3.03;;
35646;SDS011;28680;45.642;13.756;2023-05-24T15:26:02;3.13;;;2.70;;
35646;SDS011;28680;45.642;13.756;2023-05-24T15:28:46;5.32;;;3.30;;
35646;SDS011;28680;45.642;13.756;2023-05-24T15:36:31;4.00;;;3.08;;
35646;SDS011;28680;45.642;13.756;2023-05-24T15:39:15;4.20;;;3.15;;
35646;SDS011;28680;45.642;13.756;2023-05-24T15:41:44;4.95;;;3.00;;
35646;SDS011;28680;45.642;13.756;2023-05-24T15:44:10;5.07;;;2.65;;
35646;SDS011;28680;45.642;13.756;2023-05-24T15:46:35;4.30;;;3.20;;
35646;SDS011;28680;45.642;13.756;2023-05-24T15:52:36;3.92;;;3.20;;
35646;SDS011;28680;45.642;13.756;2023-05-24T15:55:02;7.63;;;3.60;;
35646;SDS011;28680;45.642;13.756;2023-05-24T15:57:29;5.43;;;2.78;;
35646;SDS011;28680;45.642;13.756;2023-05-24T15:59:55;6.05;;;3.10;;
35646;SDS011;28680;45.642;13.756;2023-05-24T16:02:21;4.57;;;3.50;;
35646;SDS011;28680;45.642;13.756;2023-05-24T16:04:47;5.95;;;3.13;;
35646;SDS011;28680;45.642;13.756;2023-05-24T16:07:14;5.53;;;3.50;;